Time;durP1;ratioP1;P1;durP2;ratioP2;P2;SDS_P1;SDS_P2;PMS_P1;PMS_P2;Temp;Humidity;BMP_temperature;BMP_pressure;BME280_temperature;BME280_humidity;BME280_pressure;Samples;Min_cycle;Max_cycle;Signal;HPM_P1;HPM_P2
2022/01/13 00:01:41;;;;;;;;;;;22.60;48.00;;;;;;5079150;28;19923;-67
2022/01/13 00:04:09;;;;;;;;;;;22.60;48.00;;;;;;5075128;28;19920;-69
2022/01/13 00:06:35;;;;;;;;;;;22.60;47.90;;;;;;5075436;28;19928;-71
2022/01/13 00:09:01;;;;;;;;;;;22.60;47.90;;;;;;5078858;28;19923;-68
2022/01/13 00:11:26;;;;;;;;;;;22.60;47.90;;;;;;5076494;28;20450;-68
2022/01/13 00:16:44;;;;;;;;;;;22.60;47.80;;;;;;5068127;28;20425;-66
2022/01/13 00:22:15;;;;;;;;;;;22.60;47.80;;;;;;5080158;28;19916;-68
2022/01/13 00:24:26;;;;;;;;;;;22.60;47.70;;;;;;5076257;28;19916;-66
2022/01/13 00:26:53;;;;;;;;;;;22.60;47.80;;;;;;5076570;28;20284;-70
2022/01/13 00:29:25;;;;;;;;;;;22.60;48.20;;;;;;5084820;28;19916;-69
2022/01/13 00:31:50;;;;;;;;;;;22.60;47.90;;;;;;5082767;28;20236;-68
2022/01/13 00:34:16;;;;;;;;;;;22.50;47.70;;;;;;5083847;28;19912;-70
2022/01/13 00:36:42;;;;;;;;;;;22.50;47.70;;;;;;5081571;28;20383;-70
2022/01/13 00:39:08;;;;;;;;;;;22.50;47.70;;;;;;5080059;28;19920;-67
2022/01/13 00:41:34;;;;;;;;;;;22.50;47.70;;;;;;5085385;28;19916;-67
2022/01/13 00:44:02;;;;;;;;;;;22.50;47.70;;;;;;5087664;28;20037;-66
2022/01/13 00:46:38;;;;;;;;;;;22.40;47.60;;;;;;5089808;28;19912;-68
2022/01/13 00:49:04;;;;;;;;;;;22.40;47.70;;;;;;5091413;28;19912;-67
2022/01/13 00:51:30;;;;;;;;;;;22.40;47.60;;;;;;5090494;28;19920;-67
2022/01/13 00:54:02;;;;;;;;;;;22.30;47.60;;;;;;5086026;28;19939;-68
2022/01/13 00:56:27;;;;;;;;;;;22.30;47.60;;;;;;5087854;28;19922;-67
2022/01/13 00:58:53;;;;;;;;;;;22.30;47.60;;;;;;5086680;28;19920;-68
2022/01/13 01:01:18;;;;;;;;;;;22.30;47.60;;;;;;5088773;28;19938;-70
2022/01/13 01:03:44;;;;;;;;;;;22.30;47.60;;;;;;5091213;28;20000;-68
2022/01/13 01:06:09;;;;;;;;;;;22.30;47.60;;;;;;5092155;28;19912;-66
2022/01/13 01:08:35;;;;;;;;;;;22.30;47.70;;;;;;5087550;28;20450;-67
2022/01/13 01:11:02;;;;;;;;;;;22.20;47.60;;;;;;5088864;28;19920;-70
2022/01/13 01:13:30;;;;;;;;;;;22.20;47.60;;;;;;5089002;28;19920;-67
2022/01/13 01:15:57;;;;;;;;;;;22.20;47.70;;;;;;5089763;28;20023;-65
2022/01/13 01:23:41;;;;;;;;;;;22.10;47.80;;;;;;5088133;28;19953;-67
2022/01/13 01:26:21;;;;;;;;;;;22.10;47.80;;;;;;5088206;28;20013;-67
2022/01/13 01:28:53;;;;;;;;;;;22.00;47.80;;;;;;5091041;28;19947;-70
2022/01/13 01:31:26;;;;;;;;;;;22.00;47.80;;;;;;5088712;28;19920;-68
2022/01/13 01:34:07;;;;;;;;;;;22.00;47.80;;;;;;5090022;28;19969;-68
2022/01/13 01:36:33;;;;;;;;;;;22.00;47.80;;;;;;5090943;28;19916;-67
2022/01/13 01:38:59;;;;;;;;;;;21.90;47.80;;;;;;5090340;28;19926;-67
2022/01/13 01:41:25;;;;;;;;;;;21.90;47.80;;;;;;5090031;28;19967;-69
2022/01/13 01:43:52;;;;;;;;;;;21.90;47.90;;;;;;5090269;28;19962;-66
2022/01/13 01:46:18;;;;;;;;;;;21.90;47.90;;;;;;5087618;28;19912;-68
2022/01/13 01:48:44;;;;;;;;;;;21.80;47.90;;;;;;5088824;28;19920;-66
2022/01/13 01:51:09;;;;;;;;;;;21.80;47.90;;;;;;5090142;28;19969;-68
2022/01/13 01:53:35;;;;;;;;;;;21.80;48.00;;;;;;5087058;28;20590;-69
2022/01/13 01:56:00;;;;;;;;;;;21.70;48.10;;;;;;5085106;28;20392;-71
2022/01/13 01:58:27;;;;;;;;;;;21.70;48.10;;;;;;5077923;28;19916;-65
2022/01/13 02:00:54;;;;;;;;;;;21.70;48.10;;;;;;5086638;28;19963;-68
2022/01/13 02:03:20;;;;;;;;;;;21.60;48.20;;;;;;5084214;28;19958;-70
2022/01/13 02:05:46;;;;;;;;;;;21.60;48.70;;;;;;5083546;28;20355;-64
2022/01/13 02:08:12;;;;;;;;;;;21.60;48.30;;;;;;5086743;28;20003;-67
2022/01/13 02:10:37;;;;;;;;;;;21.60;48.30;;;;;;5083938;28;20010;-68
2022/01/13 02:13:07;;;;;;;;;;;21.60;48.40;;;;;;5083719;28;19912;-67
2022/01/13 02:15:35;;;;;;;;;;;21.50;48.40;;;;;;5083835;28;20342;-68
2022/01/13 02:18:02;;;;;;;;;;;21.50;48.40;;;;;;5080761;28;19994;-70
2022/01/13 02:20:48;;;;;;;;;;;21.50;48.40;;;;;;5084193;28;19953;-66
2022/01/13 02:23:13;;;;;;;;;;;21.50;48.50;;;;;;5081076;28;19917;-68
2022/01/13 02:25:39;;;;;;;;;;;21.40;48.50;;;;;;5087580;28;19912;-71
2022/01/13 02:28:05;;;;;;;;;;;21.40;48.50;;;;;;5082028;28;19912;-64
2022/01/13 02:30:30;;;;;;;;;;;21.40;48.50;;;;;;5086144;28;20358;-67
2022/01/13 02:32:56;;;;;;;;;;;21.40;48.60;;;;;;5084628;28;20032;-68
2022/01/13 02:35:24;;;;;;;;;;;21.30;48.60;;;;;;5083140;28;19973;-68
2022/01/13 02:37:50;;;;;;;;;;;21.30;48.60;;;;;;5087677;28;20002;-68
2022/01/13 02:40:15;;;;;;;;;;;21.30;48.60;;;;;;5083713;28;20018;-66
2022/01/13 02:42:41;;;;;;;;;;;21.30;48.70;;;;;;5083597;28;19912;-67
2022/01/13 02:45:15;;;;;;;;;;;21.30;48.70;;;;;;5079357;28;20162;-67
2022/01/13 02:50:10;;;;;;;;;;;21.30;48.70;;;;;;5084112;28;20340;-68
2022/01/13 02:52:36;;;;;;;;;;;21.20;48.70;;;;;;5082224;28;19955;-71
2022/01/13 02:55:03;;;;;;;;;;;21.20;48.70;;;;;;5080947;28;19960;-68
2022/01/13 02:57:28;;;;;;;;;;;21.20;48.80;;;;;;5083415;28;19923;-67
2022/01/13 02:59:54;;;;;;;;;;;21.20;48.80;;;;;;5082901;28;19917;-70
2022/01/13 03:02:19;;;;;;;;;;;21.20;48.80;;;;;;5084440;28;19958;-65
2022/01/13 03:04:46;;;;;;;;;;;21.20;48.80;;;;;;5083854;28;19919;-68
2022/01/13 03:07:11;;;;;;;;;;;21.10;48.70;;;;;;5083993;28;19916;-66
2022/01/13 03:09:37;;;;;;;;;;;21.10;48.70;;;;;;5083848;28;20044;-66
2022/01/13 03:12:03;;;;;;;;;;;21.10;48.70;;;;;;5084549;28;19917;-67
2022/01/13 03:14:28;;;;;;;;;;;21.10;48.80;;;;;;5084039;28;19916;-70
2022/01/13 03:16:54;;;;;;;;;;;21.10;48.80;;;;;;5085797;28;19912;-67
2022/01/13 03:19:20;;;;;;;;;;;21.10;48.80;;;;;;5077906;28;19912;-68
2022/01/13 03:21:46;;;;;;;;;;;21.10;48.80;;;;;;5084690;28;20209;-66
2022/01/13 03:24:12;;;;;;;;;;;21.10;48.80;;;;;;5075081;28;20062;-65
2022/01/13 03:26:38;;;;;;;;;;;21.10;48.90;;;;;;5077907;28;19985;-67
2022/01/13 03:29:26;;;;;;;;;;;21.10;48.90;;;;;;5087686;28;19919;-68
2022/01/13 03:31:50;;;;;;;;;;;21.00;48.80;;;;;;5085044;28;19912;-68
2022/01/13 03:34:16;;;;;;;;;;;21.00;48.90;;;;;;5083866;28;19920;-66
2022/01/13 03:36:42;;;;;;;;;;;21.00;48.90;;;;;;5083638;28;20007;-67
2022/01/13 03:39:09;;;;;;;;;;;21.00;49.00;;;;;;5082442;28;20060;-70
2022/01/13 03:41:35;;;;;;;;;;;21.00;49.00;;;;;;5082576;28;20386;-66
2022/01/13 03:44:05;;;;;;;;;;;21.00;49.00;;;;;;5085379;28;20061;-70
2022/01/13 03:46:32;;;;;;;;;;;21.00;49.00;;;;;;5081647;28;19950;-67
2022/01/13 03:48:57;;;;;;;;;;;20.90;49.00;;;;;;5083200;28;19912;-67
2022/01/13 03:51:23;;;;;;;;;;;21.00;49.00;;;;;;5082486;28;19912;-68
2022/01/13 03:53:58;;;;;;;;;;;20.90;49.00;;;;;;5084465;28;19991;-67
2022/01/13 03:56:59;;;;;;;;;;;20.90;49.10;;;;;;5082333;28;20382;-67
2022/01/13 03:59:27;;;;;;;;;;;20.90;49.10;;;;;;5060968;28;20038;-70
2022/01/13 04:02:00;;;;;;;;;;;20.90;49.10;;;;;;5088888;28;19927;-69
2022/01/13 04:04:30;;;;;;;;;;;20.90;49.10;;;;;;5080791;28;20332;-70
2022/01/13 04:07:03;;;;;;;;;;;20.90;49.20;;;;;;5083952;28;20404;-66
2022/01/13 04:09:34;;;;;;;;;;;20.90;49.20;;;;;;5077862;28;19909;-67
2022/01/13 04:12:04;;;;;;;;;;;20.80;49.20;;;;;;5078731;28;19948;-68
2022/01/13 04:14:46;;;;;;;;;;;20.80;49.20;;;;;;5082592;28;20343;-67
2022/01/13 04:17:16;;;;;;;;;;;20.80;49.30;;;;;;5095314;28;19923;-67
2022/01/13 04:19:42;;;;;;;;;;;20.80;49.30;;;;;;5081036;28;20315;-68
2022/01/13 04:22:08;;;;;;;;;;;20.80;49.30;;;;;;5081070;28;19912;-70
2022/01/13 04:24:35;;;;;;;;;;;20.80;49.30;;;;;;5083027;28;19955;-68
2022/01/13 04:27:01;;;;;;;;;;;20.80;49.40;;;;;;5083133;28;19955;-68
2022/01/13 04:29:36;;;;;;;;;;;20.70;49.30;;;;;;5081293;28;20657;-67
2022/01/13 04:32:02;;;;;;;;;;;20.80;49.40;;;;;;5077140;28;19958;-67
2022/01/13 04:34:28;;;;;;;;;;;20.70;49.40;;;;;;5084693;28;20320;-70
2022/01/13 04:36:58;;;;;;;;;;;20.70;49.40;;;;;;5084487;28;19959;-70
2022/01/13 04:39:24;;;;;;;;;;;20.70;49.40;;;;;;5078727;28;19942;-67
2022/01/13 04:41:52;;;;;;;;;;;20.70;49.40;;;;;;5084741;28;20346;-67
2022/01/13 04:44:19;;;;;;;;;;;20.70;49.60;;;;;;5082126;28;19935;-68
2022/01/13 04:46:44;;;;;;;;;;;20.70;49.50;;;;;;5081190;28;19919;-70
2022/01/13 04:49:10;;;;;;;;;;;20.70;49.40;;;;;;5083426;28;19912;-67
2022/01/13 04:51:36;;;;;;;;;;;20.70;49.50;;;;;;5082667;28;20608;-67
2022/01/13 04:54:02;;;;;;;;;;;20.70;49.50;;;;;;5079118;28;20338;-70
2022/01/13 04:56:38;;;;;;;;;;;20.70;49.60;;;;;;5081179;28;20017;-64
2022/01/13 04:59:05;;;;;;;;;;;20.70;49.60;;;;;;5081398;28;20072;-67
2022/01/13 05:01:30;;;;;;;;;;;20.70;49.60;;;;;;5080218;28;19969;-68
2022/01/13 05:03:56;;;;;;;;;;;20.70;49.60;;;;;;5085646;28;19920;-66
2022/01/13 05:06:21;;;;;;;;;;;20.60;49.60;;;;;;5080700;28;19912;-66
2022/01/13 05:08:47;;;;;;;;;;;20.70;49.70;;;;;;5081781;28;20079;-68
2022/01/13 05:11:13;;;;;;;;;;;20.60;49.70;;;;;;5078522;28;20003;-67
2022/01/13 05:13:39;;;;;;;;;;;20.60;49.70;;;;;;5085639;28;19919;-70
2022/01/13 05:16:05;;;;;;;;;;;20.60;49.70;;;;;;5083816;28;19966;-65
2022/01/13 05:21:04;;;;;;;;;;;20.60;49.70;;;;;;5080375;28;20102;-67
2022/01/13 05:23:29;;;;;;;;;;;20.60;49.70;;;;;;5082235;28;19912;-64
2022/01/13 05:25:55;;;;;;;;;;;20.60;49.80;;;;;;5083928;28;19935;-67
2022/01/13 05:28:21;;;;;;;;;;;20.60;49.80;;;;;;5082044;28;19961;-66
2022/01/13 05:30:46;;;;;;;;;;;20.60;49.80;;;;;;5086642;28;19931;-68
2022/01/13 05:33:12;;;;;;;;;;;20.60;49.80;;;;;;5088926;28;19916;-67
2022/01/13 05:35:38;;;;;;;;;;;20.60;49.90;;;;;;5089109;28;20567;-71
2022/01/13 05:38:07;;;;;;;;;;;20.50;49.80;;;;;;5084197;28;19977;-68
2022/01/13 05:40:33;;;;;;;;;;;20.50;49.90;;;;;;5086751;28;19924;-68
2022/01/13 05:42:59;;;;;;;;;;;20.50;49.90;;;;;;5089087;28;19912;-70
2022/01/13 05:45:29;;;;;;;;;;;20.50;50.00;;;;;;5088732;28;19912;-70
2022/01/13 05:47:55;;;;;;;;;;;20.50;50.00;;;;;;5086881;28;19916;-67
2022/01/13 05:50:21;;;;;;;;;;;20.50;50.00;;;;;;5088561;28;19916;-67
2022/01/13 05:52:47;;;;;;;;;;;20.50;50.00;;;;;;5087399;28;19912;-67
2022/01/13 05:55:13;;;;;;;;;;;20.50;50.10;;;;;;5087537;28;19943;-67
2022/01/13 05:57:38;;;;;;;;;;;20.50;50.10;;;;;;5086348;28;20023;-68
2022/01/13 06:00:04;;;;;;;;;;;20.50;50.10;;;;;;5085763;28;19939;-67
2022/01/13 06:02:30;;;;;;;;;;;20.50;50.10;;;;;;5083366;28;19912;-70
2022/01/13 06:04:55;;;;;;;;;;;20.50;50.20;;;;;;5088812;28;19935;-68
2022/01/13 06:07:21;;;;;;;;;;;20.50;50.20;;;;;;5088893;28;19918;-70
2022/01/13 06:09:46;;;;;;;;;;;20.50;50.20;;;;;;5086656;28;20380;-67
2022/01/13 06:12:12;;;;;;;;;;;20.40;50.20;;;;;;5085671;28;19926;-68
2022/01/13 06:14:37;;;;;;;;;;;20.40;50.20;;;;;;5087033;28;19912;-68
2022/01/13 06:17:03;;;;;;;;;;;20.40;50.20;;;;;;5086428;28;19916;-68
2022/01/13 06:19:28;;;;;;;;;;;20.40;50.30;;;;;;5084912;28;20248;-69
2022/01/13 06:21:54;;;;;;;;;;;20.40;50.30;;;;;;5084985;28;19916;-67
2022/01/13 06:24:19;;;;;;;;;;;20.40;50.30;;;;;;5083775;28;19947;-67
2022/01/13 06:26:45;;;;;;;;;;;20.40;50.30;;;;;;5081245;28;19936;-68
2022/01/13 06:29:10;;;;;;;;;;;20.40;50.30;;;;;;5087372;28;20280;-67
2022/01/13 06:31:36;;;;;;;;;;;20.40;50.40;;;;;;5087094;28;19920;-68
2022/01/13 06:34:02;;;;;;;;;;;20.40;50.40;;;;;;5088479;28;19920;-66
2022/01/13 06:36:28;;;;;;;;;;;20.40;50.40;;;;;;5087564;28;19916;-67
2022/01/13 06:38:54;;;;;;;;;;;20.40;50.40;;;;;;5085728;28;19923;-68
2022/01/13 06:41:19;;;;;;;;;;;20.40;50.40;;;;;;5085322;28;19923;-68
2022/01/13 06:43:45;;;;;;;;;;;20.40;50.50;;;;;;5086583;28;19922;-68
2022/01/13 06:46:11;;;;;;;;;;;20.40;50.50;;;;;;5088846;28;19919;-66
2022/01/13 06:48:37;;;;;;;;;;;20.30;50.40;;;;;;5086287;28;19916;-67
2022/01/13 06:51:02;;;;;;;;;;;20.40;50.50;;;;;;5101443;28;19920;-71
2022/01/13 06:53:28;;;;;;;;;;;20.30;50.50;;;;;;5084559;28;19946;-70
2022/01/13 06:55:53;;;;;;;;;;;20.30;50.50;;;;;;5088141;28;19912;-70
2022/01/13 06:58:19;;;;;;;;;;;20.30;50.60;;;;;;5088958;28;19951;-70
2022/01/13 07:00:44;;;;;;;;;;;20.30;50.60;;;;;;5084776;28;19916;-67
2022/01/13 07:03:10;;;;;;;;;;;20.30;50.60;;;;;;5087185;28;19916;-67
2022/01/13 07:05:36;;;;;;;;;;;20.30;50.60;;;;;;5087530;28;19998;-68
2022/01/13 07:08:02;;;;;;;;;;;20.30;50.60;;;;;;5085350;28;19920;-70
2022/01/13 07:10:27;;;;;;;;;;;20.30;51.20;;;;;;5086068;28;20558;-70
2022/01/13 07:12:53;;;;;;;;;;;20.30;50.70;;;;;;5088097;28;19919;-67
2022/01/13 07:15:18;;;;;;;;;;;20.30;50.70;;;;;;5085544;28;19916;-70
2022/01/13 07:17:47;;;;;;;;;;;20.30;50.70;;;;;;5085393;28;19919;-70
2022/01/13 07:20:12;;;;;;;;;;;20.30;50.70;;;;;;5083022;28;20331;-67
2022/01/13 07:22:38;;;;;;;;;;;20.30;50.70;;;;;;5080197;28;19920;-65
2022/01/13 07:25:05;;;;;;;;;;;20.30;50.70;;;;;;5083863;28;20291;-68
2022/01/13 07:27:31;;;;;;;;;;;20.30;50.70;;;;;;5083977;28;19916;-72
2022/01/13 07:29:56;;;;;;;;;;;20.30;51.20;;;;;;5087892;28;19916;-69
2022/01/13 07:32:22;;;;;;;;;;;20.50;52.10;;;;;;5078974;28;20062;-67
2022/01/13 07:34:47;;;;;;;;;;;20.80;52.30;;;;;;5085021;28;19962;-70
2022/01/13 07:37:13;;;;;;;;;;;21.10;52.20;;;;;;5090916;28;20359;-69
2022/01/13 07:39:38;;;;;;;;;;;21.40;51.80;;;;;;5088527;28;19927;-66
2022/01/13 07:42:05;;;;;;;;;;;21.70;51.70;;;;;;5079558;28;19927;-71
2022/01/13 07:44:30;;;;;;;;;;;21.90;51.40;;;;;;5086060;28;20019;-73
2022/01/13 07:46:58;;;;;;;;;;;22.10;51.10;;;;;;5087616;28;20358;-67
2022/01/13 07:49:24;;;;;;;;;;;22.20;50.90;;;;;;5085745;28;19969;-70
2022/01/13 07:51:49;;;;;;;;;;;22.40;50.70;;;;;;5088484;28;20360;-70
2022/01/13 07:54:15;;;;;;;;;;;22.50;50.60;;;;;;5087308;28;19916;-71
2022/01/13 07:56:40;;;;;;;;;;;22.60;50.50;;;;;;5082166;28;19916;-69
2022/01/13 07:59:06;;;;;;;;;;;22.70;50.60;;;;;;5080228;28;19934;-69
2022/01/13 08:01:31;;;;;;;;;;;22.70;50.20;;;;;;5083298;28;20000;-67
2022/01/13 08:03:57;;;;;;;;;;;22.70;50.20;;;;;;5080614;28;19916;-69
2022/01/13 08:06:22;;;;;;;;;;;22.60;50.40;;;;;;5086182;28;19926;-70
2022/01/13 08:08:48;;;;;;;;;;;22.60;50.60;;;;;;5078690;28;19912;-66
2022/01/13 08:11:13;;;;;;;;;;;22.60;50.70;;;;;;5085272;28;19913;-67
2022/01/13 08:13:39;;;;;;;;;;;22.50;50.80;;;;;;5087557;28;19931;-70
2022/01/13 08:16:10;;;;;;;;;;;22.60;50.80;;;;;;5086341;28;19992;-65
2022/01/13 08:21:19;;;;;;;;;;;22.50;50.80;;;;;;5084808;28;19922;-69
2022/01/13 08:23:45;;;;;;;;;;;22.60;50.70;;;;;;5082260;28;19995;-72
2022/01/13 08:26:11;;;;;;;;;;;22.50;51.20;;;;;;5083578;28;19912;-67
2022/01/13 08:28:36;;;;;;;;;;;22.60;50.90;;;;;;5085347;28;19929;-70
2022/01/13 08:31:03;;;;;;;;;;;22.60;51.10;;;;;;5087999;28;20330;-69
2022/01/13 08:33:29;;;;;;;;;;;22.60;51.00;;;;;;5089161;28;19916;-71
2022/01/13 08:35:54;;;;;;;;;;;22.70;51.00;;;;;;5080150;28;20035;-69
2022/01/13 08:38:21;;;;;;;;;;;22.70;51.00;;;;;;5084687;28;20627;-70
2022/01/13 08:40:48;;;;;;;;;;;22.70;51.10;;;;;;5085112;28;19920;-69
2022/01/13 08:43:14;;;;;;;;;;;22.70;51.00;;;;;;5086171;28;19942;-71
2022/01/13 08:45:43;;;;;;;;;;;22.80;51.00;;;;;;5084933;28;19917;-66
2022/01/13 08:48:09;;;;;;;;;;;22.70;51.10;;;;;;5085847;28;19916;-69
2022/01/13 08:50:35;;;;;;;;;;;22.80;51.10;;;;;;5088807;28;19920;-72
2022/01/13 08:53:00;;;;;;;;;;;22.80;51.20;;;;;;5085461;28;19920;-70
2022/01/13 08:55:26;;;;;;;;;;;22.80;51.30;;;;;;5081127;28;19916;-66
2022/01/13 08:57:52;;;;;;;;;;;22.90;51.20;;;;;;5090122;28;19962;-69
2022/01/13 09:00:17;;;;;;;;;;;22.80;51.00;;;;;;5089988;28;19920;-71
2022/01/13 09:02:43;;;;;;;;;;;22.90;51.00;;;;;;5092344;28;20000;-67
2022/01/13 09:05:10;;;;;;;;;;;22.90;51.00;;;;;;5093484;28;19956;-69
2022/01/13 09:07:35;;;;;;;;;;;22.90;51.00;;;;;;5088717;28;19922;-66
2022/01/13 09:10:01;;;;;;;;;;;22.90;50.90;;;;;;5081892;28;20027;-67
2022/01/13 09:12:27;;;;;;;;;;;22.90;50.90;;;;;;5090786;28;19938;-70
2022/01/13 09:14:59;;;;;;;;;;;22.90;51.20;;;;;;5090254;28;19968;-69
2022/01/13 09:17:24;;;;;;;;;;;23.00;51.20;;;;;;5089576;28;20039;-65
2022/01/13 09:19:51;;;;;;;;;;;23.00;51.10;;;;;;5084612;28;20002;-70
2022/01/13 09:22:17;;;;;;;;;;;23.00;51.20;;;;;;5088091;28;20333;-68
2022/01/13 09:24:43;;;;;;;;;;;23.00;51.20;;;;;;5088119;28;19916;-73
2022/01/13 09:27:08;;;;;;;;;;;23.10;51.30;;;;;;5085010;28;19924;-69
2022/01/13 09:29:34;;;;;;;;;;;23.10;51.30;;;;;;5090731;28;20584;-69
2022/01/13 09:31:59;;;;;;;;;;;23.10;51.20;;;;;;5087280;28;20095;-69
2022/01/13 09:34:25;;;;;;;;;;;23.10;51.20;;;;;;5084831;28;20012;-71
2022/01/13 09:36:50;;;;;;;;;;;23.10;51.50;;;;;;5089482;28;20376;-69
2022/01/13 09:39:16;;;;;;;;;;;23.10;51.50;;;;;;5085895;28;19940;-71
2022/01/13 09:41:43;;;;;;;;;;;23.20;51.70;;;;;;5084217;28;20019;-71
2022/01/13 09:44:09;;;;;;;;;;;23.20;50.30;;;;;;5087487;28;19916;-72
2022/01/13 09:46:35;;;;;;;;;;;23.20;48.30;;;;;;5086604;28;19912;-69
2022/01/13 09:49:05;;;;;;;;;;;23.10;47.90;;;;;;5083887;28;19927;-70
2022/01/13 09:51:32;;;;;;;;;;;23.10;47.70;;;;;;5082308;28;19939;-68
2022/01/13 09:53:57;;;;;;;;;;;23.10;47.60;;;;;;5083682;28;19913;-71
2022/01/13 09:56:23;;;;;;;;;;;23.10;47.10;;;;;;5085656;28;19916;-67
2022/01/13 09:58:48;;;;;;;;;;;23.00;47.30;;;;;;5085176;28;19989;-70
2022/01/13 10:01:15;;;;;;;;;;;23.10;47.10;;;;;;5083036;28;19916;-70
2022/01/13 10:03:41;;;;;;;;;;;23.00;47.00;;;;;;5085992;28;19916;-71
2022/01/13 10:06:10;;;;;;;;;;;23.00;47.30;;;;;;5088958;28;20785;-67
2022/01/13 10:08:49;;;;;;;;;;;23.00;47.60;;;;;;5082363;28;19952;-70
2022/01/13 10:11:36;;;;;;;;;;;23.00;48.10;;;;;;5081312;28;19924;-68
2022/01/13 10:14:10;;;;;;;;;;;23.10;48.50;;;;;;5086112;28;19919;-66
2022/01/13 10:16:41;;;;;;;;;;;23.10;48.90;;;;;;5089074;28;20001;-67
2022/01/13 10:19:07;;;;;;;;;;;23.10;48.90;;;;;;5083419;28;19958;-69
2022/01/13 10:21:32;;;;;;;;;;;23.10;49.10;;;;;;5086202;28;19955;-70
2022/01/13 10:24:09;;;;;;;;;;;23.20;49.40;;;;;;5085571;28;19959;-69
2022/01/13 10:26:36;;;;;;;;;;;23.20;49.70;;;;;;5084256;28;19923;-69
2022/01/13 10:29:03;;;;;;;;;;;23.20;49.90;;;;;;5086677;28;19912;-68
2022/01/13 10:31:47;;;;;;;;;;;23.20;50.00;;;;;;5085482;28;19955;-67
2022/01/13 10:34:20;;;;;;;;;;;23.20;49.90;;;;;;5083458;28;20256;-71
2022/01/13 10:36:59;;;;;;;;;;;23.20;50.00;;;;;;5089625;28;20237;-69
2022/01/13 10:39:42;;;;;;;;;;;23.20;49.90;;;;;;5095425;28;19970;-67
2022/01/13 10:42:20;;;;;;;;;;;23.30;50.20;;;;;;5078712;28;19913;-68
2022/01/13 10:44:52;;;;;;;;;;;23.30;50.50;;;;;;5087748;28;20296;-69
2022/01/13 10:47:17;;;;;;;;;;;23.30;50.50;;;;;;5081028;28;19916;-68
2022/01/13 10:49:44;;;;;;;;;;;23.40;50.50;;;;;;5081293;28;19920;-70
2022/01/13 10:52:26;;;;;;;;;;;23.40;50.40;;;;;;5084741;28;19912;-71
2022/01/13 10:54:59;;;;;;;;;;;23.40;50.80;;;;;;5080212;28;19989;-72
2022/01/13 10:57:25;;;;;;;;;;;23.40;50.50;;;;;;5080818;28;20290;-70
2022/01/13 10:59:51;;;;;;;;;;;23.40;48.20;;;;;;5078396;28;19924;-67
2022/01/13 11:02:20;;;;;;;;;;;23.40;48.10;;;;;;5084603;28;19999;-67
2022/01/13 11:04:46;;;;;;;;;;;23.40;48.60;;;;;;5085410;28;19957;-68
2022/01/13 11:07:16;;;;;;;;;;;23.40;49.00;;;;;;5085196;28;19932;-72
2022/01/13 11:09:43;;;;;;;;;;;23.40;49.40;;;;;;5082926;28;20027;-70
2022/01/13 11:12:10;;;;;;;;;;;23.40;47.70;;;;;;5084126;28;20023;-69
2022/01/13 11:14:42;;;;;;;;;;;23.40;47.20;;;;;;5083837;28;19916;-70
2022/01/13 11:17:08;;;;;;;;;;;23.30;47.10;;;;;;5082332;28;19943;-70
2022/01/13 11:19:34;;;;;;;;;;;23.30;47.10;;;;;;5085453;28;19912;-69
2022/01/13 11:21:59;;;;;;;;;;;23.30;47.10;;;;;;5084824;28;19977;-72
2022/01/13 11:24:25;;;;;;;;;;;23.20;47.10;;;;;;5079371;28;20647;-72
2022/01/13 11:26:50;;;;;;;;;;;23.20;47.70;;;;;;5082783;28;19916;-72
2022/01/13 11:29:17;;;;;;;;;;;23.20;47.00;;;;;;5083091;28;20357;-72
2022/01/13 11:31:43;;;;;;;;;;;23.10;47.10;;;;;;5086156;28;20305;-72
2022/01/13 11:34:09;;;;;;;;;;;23.10;47.00;;;;;;5083812;28;20062;-72
2022/01/13 11:36:34;;;;;;;;;;;23.10;47.10;;;;;;5085687;28;19973;-69
2022/01/13 11:39:01;;;;;;;;;;;23.10;47.10;;;;;;5082373;28;19927;-69
2022/01/13 11:41:27;;;;;;;;;;;23.10;47.10;;;;;;5085714;28;19920;-71
2022/01/13 11:43:53;;;;;;;;;;;23.00;47.10;;;;;;5078181;28;19916;-69
2022/01/13 11:46:21;;;;;;;;;;;23.00;47.20;;;;;;5084686;28;19918;-72
2022/01/13 11:49:14;;;;;;;;;;;23.00;47.20;;;;;;5084848;28;19923;-70
2022/01/13 11:52:29;;;;;;;;;;;23.00;47.30;;;;;;5086320;28;20374;-72
2022/01/13 11:54:48;;;;;;;;;;;23.00;47.40;;;;;;5079534;28;20463;-70
2022/01/13 11:57:23;;;;;;;;;;;23.00;47.40;;;;;;5083028;28;19920;-69
2022/01/13 11:59:54;;;;;;;;;;;23.00;47.50;;;;;;5079525;28;20297;-71
2022/01/13 12:02:24;;;;;;;;;;;23.00;48.00;;;;;;5079040;28;19921;-70
2022/01/13 12:05:03;;;;;;;;;;;23.00;47.60;;;;;;5082319;28;19920;-67
2022/01/13 12:07:49;;;;;;;;;;;23.00;47.60;;;;;;5085048;28;19969;-69
2022/01/13 12:10:21;;;;;;;;;;;23.00;47.60;;;;;;5071442;28;19912;-71
2022/01/13 12:12:47;;;;;;;;;;;23.00;47.70;;;;;;5080563;28;19916;-69
2022/01/13 12:15:16;;;;;;;;;;;23.00;47.70;;;;;;5082674;28;19912;-68
2022/01/13 12:17:43;;;;;;;;;;;23.00;47.70;;;;;;5081135;28;19912;-72
2022/01/13 12:20:27;;;;;;;;;;;23.00;47.90;;;;;;5084226;28;19970;-70
2022/01/13 12:23:16;;;;;;;;;;;23.00;47.90;;;;;;5083526;28;19965;-71
2022/01/13 12:25:42;;;;;;;;;;;23.00;48.00;;;;;;5080341;28;19916;-71
2022/01/13 12:28:15;;;;;;;;;;;22.90;48.00;;;;;;5079619;28;19920;-72
2022/01/13 12:30:41;;;;;;;;;;;23.00;48.10;;;;;;5081123;28;19916;-70
2022/01/13 12:33:08;;;;;;;;;;;22.90;48.00;;;;;;5082430;28;19931;-69
2022/01/13 12:35:34;;;;;;;;;;;22.90;48.10;;;;;;5084375;28;19976;-71
2022/01/13 12:38:27;;;;;;;;;;;22.90;48.10;;;;;;5084662;28;19924;-70
2022/01/13 12:41:00;;;;;;;;;;;22.90;48.10;;;;;;5074912;28;19920;-73
2022/01/13 12:43:37;;;;;;;;;;;23.00;48.10;;;;;;5077032;28;19924;-70
2022/01/13 12:46:10;;;;;;;;;;;23.00;48.10;;;;;;5079907;28;20371;-73
2022/01/13 12:48:36;;;;;;;;;;;23.00;48.10;;;;;;5085266;28;20645;-74
2022/01/13 12:51:02;;;;;;;;;;;23.00;48.10;;;;;;5083687;28;20358;-73
2022/01/13 12:53:30;;;;;;;;;;;23.00;48.10;;;;;;5075944;28;19916;-72
2022/01/13 12:55:56;;;;;;;;;;;22.90;48.10;;;;;;5081675;28;19915;-70
2022/01/13 12:58:24;;;;;;;;;;;22.90;48.10;;;;;;5076980;28;20382;-69
2022/01/13 13:00:49;;;;;;;;;;;22.90;48.20;;;;;;5083614;28;19916;-68
2022/01/13 13:03:15;;;;;;;;;;;22.90;48.10;;;;;;5079318;28;19912;-69
2022/01/13 13:05:46;;;;;;;;;;;22.90;48.10;;;;;;5083479;28;20335;-70
2022/01/13 13:08:16;;;;;;;;;;;22.90;48.10;;;;;;5081926;28;20235;-72
2022/01/13 13:10:42;;;;;;;;;;;22.90;48.20;;;;;;5083047;28;20048;-72
2022/01/13 13:13:08;;;;;;;;;;;22.90;48.20;;;;;;5080158;28;19946;-72
2022/01/13 13:17:59;;;;;;;;;;;22.90;48.30;;;;;;5080885;28;20058;-68
2022/01/13 13:20:26;;;;;;;;;;;22.90;48.20;;;;;;5082085;28;20003;-68
2022/01/13 13:22:58;;;;;;;;;;;22.90;48.30;;;;;;5081421;28;19912;-70
2022/01/13 13:25:32;;;;;;;;;;;22.90;48.30;;;;;;5082451;28;19919;-73
2022/01/13 13:28:17;;;;;;;;;;;22.90;48.20;;;;;;5082735;28;19920;-70
2022/01/13 13:30:43;;;;;;;;;;;22.90;48.20;;;;;;5078791;28;19930;-75
2022/01/13 13:33:09;;;;;;;;;;;22.90;48.30;;;;;;5081828;28;19924;-74
2022/01/13 13:35:34;;;;;;;;;;;22.90;48.30;;;;;;5079295;28;19985;-70
2022/01/13 13:38:01;;;;;;;;;;;22.90;48.30;;;;;;5085709;28;20251;-74
2022/01/13 13:40:27;;;;;;;;;;;22.90;48.50;;;;;;5083682;28;19969;-75
2022/01/13 13:43:19;;;;;;;;;;;22.90;48.30;;;;;;5080938;28;19916;-70
2022/01/13 13:45:44;;;;;;;;;;;22.90;48.50;;;;;;5081170;28;19913;-70
2022/01/13 13:48:10;;;;;;;;;;;22.90;48.50;;;;;;5082963;28;20391;-70
2022/01/13 13:50:35;;;;;;;;;;;22.90;48.50;;;;;;5086256;28;19972;-73
2022/01/13 13:53:08;;;;;;;;;;;22.90;48.60;;;;;;5083784;28;19912;-73
2022/01/13 13:55:35;;;;;;;;;;;22.90;49.00;;;;;;5086302;28;19918;-71
2022/01/13 13:58:00;;;;;;;;;;;22.90;49.50;;;;;;5088413;28;19947;-72
2022/01/13 14:00:26;;;;;;;;;;;22.90;49.90;;;;;;5085982;28;19997;-69
2022/01/13 14:02:53;;;;;;;;;;;23.00;50.00;;;;;;5086464;28;20388;-71
2022/01/13 14:05:21;;;;;;;;;;;23.00;50.60;;;;;;5085995;28;19915;-70
2022/01/13 14:07:48;;;;;;;;;;;23.00;50.50;;;;;;5084585;28;19999;-74
2022/01/13 14:10:15;;;;;;;;;;;23.10;50.80;;;;;;5081680;28;19920;-75
2022/01/13 14:12:41;;;;;;;;;;;23.00;50.80;;;;;;5086313;28;20378;-69
2022/01/13 14:15:11;;;;;;;;;;;23.10;51.40;;;;;;5076384;28;20321;-70
2022/01/13 14:17:37;;;;;;;;;;;23.10;45.30;;;;;;5079149;28;20074;-70
2022/01/13 14:20:04;;;;;;;;;;;22.90;41.00;;;;;;5075464;28;20307;-70
2022/01/13 14:22:30;;;;;;;;;;;22.80;38.30;;;;;;5080680;28;19916;-70
2022/01/13 14:24:58;;;;;;;;;;;22.60;36.00;;;;;;5076863;28;20626;-71
2022/01/13 14:27:24;;;;;;;;;;;22.40;35.20;;;;;;5080780;28;19927;-69
2022/01/13 14:29:51;;;;;;;;;;;22.20;35.40;;;;;;5076231;28;19978;-69
2022/01/13 14:32:29;;;;;;;;;;;22.00;32.90;;;;;;5078372;28;19916;-70
2022/01/13 14:34:56;;;;;;;;;;;21.90;33.60;;;;;;5077706;28;20646;-71
2022/01/13 14:37:23;;;;;;;;;;;21.80;33.90;;;;;;5080124;28;19916;-71
2022/01/13 14:40:04;;;;;;;;;;;21.80;35.20;;;;;;5075714;28;19927;-73
2022/01/13 14:42:30;;;;;;;;;;;21.70;36.10;;;;;;5080229;28;19927;-69